createdAt,value
2018-06-24T00:01:47.707Z,6.73
2018-06-24T00:04:15.868Z,4.50
2018-06-24T00:06:44.026Z,5.60
2018-06-24T00:09:12.206Z,4.30
2018-06-24T00:11:40.999Z,3.17
2018-06-24T00:14:09.935Z,4.83
2018-06-24T00:16:38.045Z,4.67
2018-06-24T00:19:06.166Z,4.97
2018-06-24T00:21:34.695Z,4.00
2018-06-24T00:24:02.984Z,3.30
2018-06-24T00:26:31.096Z,3.20
2018-06-24T00:28:59.222Z,4.87
2018-06-24T00:31:27.407Z,6.47
2018-06-24T00:33:55.511Z,4.93
2018-06-24T00:36:23.660Z,3.43
2018-06-24T00:38:52.519Z,5.77
2018-06-24T00:41:21.803Z,3.37
2018-06-24T00:43:50.015Z,4.10
2018-06-24T00:46:18.174Z,4.93
2018-06-24T00:48:46.422Z,3.30
2018-06-24T00:51:15.337Z,4.67
2018-06-24T00:53:43.486Z,3.57
2018-06-24T00:56:12.283Z,3.57
2018-06-24T00:58:40.475Z,3.00
2018-06-24T01:01:08.611Z,4.90
2018-06-24T01:03:36.737Z,3.13
2018-06-24T01:06:04.982Z,3.90
2018-06-24T01:08:33.159Z,3.60
2018-06-24T01:11:01.386Z,4.57
2018-06-24T01:13:29.734Z,6.17
2018-06-24T01:15:57.869Z,3.60
2018-06-24T01:18:26.087Z,3.43
2018-06-24T01:20:54.238Z,3.00
2018-06-24T01:23:22.403Z,4.60
2018-06-24T01:25:50.689Z,5.53
2018-06-24T01:28:18.894Z,2.87
2018-06-24T01:30:47.016Z,3.47
2018-06-24T01:33:15.692Z,3.73
2018-06-24T01:35:44.061Z,3.67
2018-06-24T01:38:12.397Z,3.80
2018-06-24T01:40:40.657Z,3.73
2018-06-24T01:43:08.823Z,2.70
2018-06-24T01:45:37.468Z,7.17
2018-06-24T01:48:05.629Z,4.73
2018-06-24T01:50:33.787Z,3.77
2018-06-24T01:53:01.904Z,3.80
2018-06-24T01:55:30.127Z,3.50
2018-06-24T01:57:59.283Z,4.47
2018-06-24T02:00:27.473Z,3.33
2018-06-24T02:02:57.463Z,3.77
2018-06-24T02:05:25.703Z,6.47
2018-06-24T02:07:53.961Z,3.00
2018-06-24T02:10:22.858Z,3.37
2018-06-24T02:12:51.014Z,4.87
2018-06-24T02:15:19.212Z,5.37
2018-06-24T02:17:47.496Z,5.07
2018-06-24T02:20:15.661Z,4.97
2018-06-24T02:22:43.819Z,4.33
2018-06-24T02:25:12.111Z,4.10
2018-06-24T02:27:40.239Z,4.37
2018-06-24T02:30:08.428Z,4.07
2018-06-24T02:32:36.599Z,5.80
2018-06-24T02:35:04.786Z,3.47
2018-06-24T02:37:33.031Z,4.33
2018-06-24T02:40:01.800Z,3.57
2018-06-24T02:42:29.950Z,5.07
2018-06-24T02:44:58.166Z,3.77
2018-06-24T02:47:26.275Z,4.53
2018-06-24T02:49:55.059Z,4.83
2018-06-24T02:52:23.428Z,3.60
2018-06-24T02:54:51.713Z,4.97
2018-06-24T02:57:19.995Z,4.40
2018-06-24T02:59:48.875Z,2.50
2018-06-24T03:02:17.135Z,3.40
2018-06-24T03:04:46.091Z,3.33
2018-06-24T03:07:14.297Z,3.97
2018-06-24T03:09:42.435Z,3.33
2018-06-24T03:12:10.579Z,2.80
2018-06-24T03:14:39.516Z,3.77
2018-06-24T03:17:07.628Z,3.13
2018-06-24T03:19:35.813Z,3.90
2018-06-24T03:22:03.966Z,4.73
2018-06-24T03:24:32.127Z,4.87
2018-06-24T03:27:00.313Z,3.53
2018-06-24T03:29:28.461Z,4.73
2018-06-24T03:31:56.616Z,3.63
2018-06-24T03:34:24.819Z,3.80
2018-06-24T03:36:52.971Z,5.53
2018-06-24T03:39:21.172Z,3.33
2018-06-24T03:41:49.373Z,5.77
2018-06-24T03:44:17.567Z,3.47
2018-06-24T03:46:45.785Z,2.73
2018-06-24T03:49:13.935Z,3.33
2018-06-24T03:51:42.113Z,4.00
2018-06-24T03:54:10.334Z,4.40
2018-06-24T03:56:39.431Z,5.57
2018-06-24T03:59:07.627Z,7.90
2018-06-24T04:01:35.797Z,4.47
2018-06-24T04:04:03.965Z,4.20
2018-06-24T04:06:32.246Z,5.30
2018-06-24T04:09:01.159Z,6.37
2018-06-24T04:11:29.287Z,6.77
2018-06-24T04:13:57.988Z,6.33
2018-06-24T04:16:26.126Z,7.53
2018-06-24T04:18:54.218Z,6.07
2018-06-24T04:21:22.588Z,5.50
2018-06-24T04:23:50.720Z,6.40
2018-06-24T04:26:18.877Z,4.70
2018-06-24T04:28:47.021Z,5.70
2018-06-24T04:31:15.294Z,4.73
2018-06-24T04:33:44.208Z,8.43
2018-06-24T04:36:12.360Z,5.73
2018-06-24T04:38:40.504Z,7.03
2018-06-24T04:41:08.694Z,7.27
2018-06-24T04:43:36.907Z,5.97
2018-06-24T04:46:05.028Z,6.53
2018-06-24T04:48:33.216Z,6.93
2018-06-24T04:51:01.374Z,6.67
2018-06-24T04:53:29.550Z,6.20
2018-06-24T04:55:57.655Z,4.40
2018-06-24T04:58:25.797Z,6.37
2018-06-24T05:00:54.010Z,5.57
2018-06-24T05:03:22.143Z,5.93
2018-06-24T05:05:51.003Z,5.57
2018-06-24T05:08:19.105Z,8.80
2018-06-24T05:10:47.233Z,5.60
2018-06-24T05:13:15.359Z,5.80
2018-06-24T05:15:43.635Z,8.60
2018-06-24T05:18:11.754Z,3.87
2018-06-24T05:20:39.983Z,4.20
2018-06-24T05:23:08.311Z,6.03
2018-06-24T05:25:36.440Z,6.30
2018-06-24T05:28:04.619Z,6.53
2018-06-24T05:30:32.891Z,5.80
2018-06-24T05:33:01.048Z,3.63
2018-06-24T05:35:29.164Z,6.53
2018-06-24T05:37:57.322Z,4.90
2018-06-24T05:40:25.475Z,6.27
2018-06-24T05:42:53.617Z,6.53
2018-06-24T05:45:21.812Z,4.20
2018-06-24T05:47:50.037Z,6.33
2018-06-24T05:50:18.172Z,6.33
2018-06-24T05:52:46.350Z,3.97
2018-06-24T05:55:14.632Z,7.30
2018-06-24T05:57:42.876Z,7.17
2018-06-24T06:00:11.859Z,5.17
2018-06-24T06:02:40.577Z,5.47
2018-06-24T06:05:08.867Z,6.73
2018-06-24T06:07:37.136Z,6.20
2018-06-24T06:10:05.475Z,2.97
2018-06-24T06:12:33.798Z,8.93
2018-06-24T06:15:01.948Z,6.07
2018-06-24T06:17:30.132Z,8.97
2018-06-24T06:19:58.337Z,4.53
2018-06-24T06:22:27.090Z,6.67
2018-06-24T06:24:55.242Z,6.47
2018-06-24T06:27:23.496Z,4.83
2018-06-24T06:29:51.635Z,7.10
2018-06-24T06:32:20.754Z,7.67
2018-06-24T06:34:49.577Z,7.20
2018-06-24T06:37:18.657Z,6.13
2018-06-24T06:39:46.859Z,6.30
2018-06-24T06:42:15.128Z,7.17
2018-06-24T06:44:43.932Z,5.80
2018-06-24T06:47:12.852Z,6.00
2018-06-24T06:49:41.220Z,6.77
2018-06-24T06:52:09.464Z,6.87
2018-06-24T06:54:37.864Z,8.13
2018-06-24T06:57:06.442Z,5.43
2018-06-24T06:59:34.607Z,5.77
2018-06-24T07:02:02.894Z,5.73
2018-06-24T07:04:31.067Z,6.90
2018-06-24T07:06:59.349Z,5.50
2018-06-24T07:09:27.522Z,7.13
2018-06-24T07:11:55.647Z,6.37
2018-06-24T07:14:23.752Z,6.33
2018-06-24T07:16:52.148Z,4.10
2018-06-24T07:19:20.282Z,3.87
2018-06-24T07:21:48.391Z,7.20
2018-06-24T07:24:16.563Z,3.83
2018-06-24T07:26:44.809Z,5.53
2018-06-24T07:29:13.201Z,6.97
2018-06-24T07:31:42.046Z,5.93
2018-06-24T07:34:10.796Z,4.90
2018-06-24T07:36:38.947Z,6.43
2018-06-24T07:39:07.994Z,9.47
2018-06-24T07:41:36.894Z,6.60
2018-06-24T07:44:05.950Z,7.93
2018-06-24T07:46:34.092Z,6.60
2018-06-24T07:49:02.396Z,5.93
2018-06-24T07:51:30.561Z,8.60
2018-06-24T07:53:58.821Z,4.57
2018-06-24T07:56:27.010Z,5.37
2018-06-24T07:58:55.700Z,3.83
2018-06-24T08:01:24.740Z,7.70
2018-06-24T08:03:52.985Z,8.87
2018-06-24T08:06:21.659Z,7.10
2018-06-24T08:08:49.867Z,10.93
2018-06-24T08:11:18.783Z,7.73
2018-06-24T08:13:47.111Z,4.30
2018-06-24T08:16:15.294Z,7.70
2018-06-24T08:18:43.438Z,6.80
2018-06-24T08:21:11.622Z,7.93
2018-06-24T08:23:39.833Z,7.00
2018-06-24T08:26:07.989Z,4.47
2018-06-24T08:28:37.306Z,6.13
2018-06-24T08:31:05.721Z,6.23
2018-06-24T08:33:33.856Z,7.20
2018-06-24T08:36:02.005Z,6.27
2018-06-24T08:38:30.209Z,6.20
2018-06-24T08:40:58.343Z,7.27
2018-06-24T08:43:26.513Z,7.03
2018-06-24T08:45:54.855Z,4.73
2018-06-24T08:48:23.070Z,7.17
2018-06-24T08:50:51.994Z,8.57
2018-06-24T08:53:20.135Z,4.07
2018-06-24T08:55:48.338Z,3.10
2018-06-24T08:58:16.837Z,4.67
2018-06-24T09:00:45.047Z,4.73
2018-06-24T09:03:13.144Z,5.30
2018-06-24T09:05:41.284Z,4.13
2018-06-24T09:08:09.431Z,5.73
2018-06-24T09:10:37.589Z,5.47
2018-06-24T09:13:05.739Z,3.33
2018-06-24T09:15:33.849Z,6.23
2018-06-24T09:18:02.017Z,7.80
2018-06-24T09:20:30.898Z,5.90
2018-06-24T09:22:59.175Z,4.90
2018-06-24T09:25:28.127Z,4.20
2018-06-24T09:27:56.453Z,4.53
2018-06-24T09:30:24.593Z,8.67
2018-06-24T09:32:52.746Z,5.80
2018-06-24T09:35:20.884Z,5.03
2018-06-24T09:37:49.024Z,4.07
2018-06-24T09:40:17.161Z,4.17
2018-06-24T09:42:45.341Z,6.30
2018-06-24T09:45:13.529Z,5.20
2018-06-24T09:47:41.709Z,6.57
2018-06-24T09:50:09.984Z,4.63
2018-06-24T09:52:38.322Z,6.40
2018-06-24T09:55:06.633Z,7.30
2018-06-24T09:57:35.503Z,5.27
2018-06-24T10:00:03.899Z,4.43
2018-06-24T10:02:32.045Z,4.60
2018-06-24T10:05:00.337Z,5.83
2018-06-24T10:07:28.604Z,9.70
2018-06-24T10:09:56.960Z,5.73
2018-06-24T10:12:25.149Z,5.07
2018-06-24T10:14:53.343Z,5.10
2018-06-24T10:17:21.728Z,4.23
2018-06-24T10:19:50.393Z,4.23
2018-06-24T10:22:19.763Z,3.23
2018-06-24T10:24:47.899Z,7.50
2018-06-24T10:27:16.161Z,5.07
2018-06-24T10:29:44.343Z,3.90
2018-06-24T10:32:12.517Z,5.50
2018-06-24T10:34:40.664Z,3.60
2018-06-24T10:37:09.499Z,4.80
2018-06-24T10:39:37.854Z,4.70
2018-06-24T10:42:06.119Z,3.23
2018-06-24T10:44:34.311Z,4.77
2018-06-24T10:47:02.493Z,5.73
2018-06-24T10:49:31.881Z,3.47
2018-06-24T10:52:00.071Z,4.70
2018-06-24T10:54:28.435Z,5.70
2018-06-24T10:56:56.632Z,5.37
2018-06-24T10:59:24.847Z,5.23
2018-06-24T11:01:53.100Z,5.90
2018-06-24T11:04:21.430Z,5.17
2018-06-24T11:06:49.675Z,4.00
2018-06-24T11:09:17.892Z,3.40
2018-06-24T11:11:46.895Z,4.63
2018-06-24T11:14:15.082Z,4.70
2018-06-24T11:16:43.314Z,3.57
2018-06-24T11:19:11.695Z,6.10
2018-06-24T11:21:40.396Z,5.90
2018-06-24T11:24:09.376Z,4.83
2018-06-24T11:26:38.373Z,5.27
2018-06-24T11:29:06.638Z,4.97
2018-06-24T11:31:35.576Z,5.27
2018-06-24T11:34:03.873Z,4.37
2018-06-24T11:36:32.146Z,6.10
2018-06-24T11:39:00.282Z,4.47
2018-06-24T11:41:30.115Z,5.30
2018-06-24T11:43:58.264Z,3.30
2018-06-24T11:46:27.071Z,4.40
2018-06-24T11:48:55.422Z,4.57
2018-06-24T11:51:23.698Z,4.63
2018-06-24T11:53:51.984Z,4.17
2018-06-24T11:56:20.344Z,4.23
2018-06-24T11:58:48.495Z,4.20
2018-06-24T12:01:16.686Z,4.13
2018-06-24T12:03:44.974Z,4.17
2018-06-24T12:06:13.768Z,4.00
2018-06-24T12:08:41.962Z,2.87
2018-06-24T12:11:10.214Z,2.87
2018-06-24T12:13:38.383Z,3.17
2018-06-24T12:16:06.639Z,3.00
2018-06-24T12:18:34.850Z,3.40
2018-06-24T12:21:03.566Z,3.17
2018-06-24T12:23:31.903Z,2.60
2018-06-24T12:26:00.068Z,2.23
2018-06-24T12:28:28.425Z,2.67
2018-06-24T12:30:56.658Z,3.07
2018-06-24T12:33:25.406Z,1.83
2018-06-24T12:35:53.558Z,2.43
2018-06-24T12:38:21.884Z,3.47
2018-06-24T12:40:50.218Z,4.23
2018-06-24T12:43:18.826Z,4.47
2018-06-24T12:45:46.991Z,2.47
2018-06-24T12:48:15.279Z,3.20
2018-06-24T12:50:43.437Z,3.63
2018-06-24T12:53:11.739Z,3.77
2018-06-24T12:55:40.598Z,2.90
2018-06-24T12:58:08.808Z,5.27
2018-06-24T13:00:37.620Z,2.37
2018-06-24T13:03:05.127Z,3.40
2018-06-24T13:05:34.441Z,3.13
2018-06-24T13:08:02.706Z,3.37
2018-06-24T13:10:31.716Z,2.53
2018-06-24T13:12:59.877Z,3.83
2018-06-24T13:15:28.817Z,2.73
2018-06-24T13:17:57.142Z,3.43
2018-06-24T13:20:25.312Z,2.30
2018-06-24T13:22:53.480Z,2.13
2018-06-24T13:25:21.952Z,2.13
2018-06-24T13:27:51.009Z,2.20
2018-06-24T13:30:19.162Z,2.67
2018-06-24T13:32:48.377Z,4.30
2018-06-24T13:35:16.587Z,3.63
2018-06-24T13:37:44.800Z,5.27
2018-06-24T13:40:13.768Z,2.67
2018-06-24T13:42:41.990Z,3.30
2018-06-24T13:45:10.394Z,4.07
2018-06-24T13:47:38.616Z,3.20
2018-06-24T13:50:06.769Z,4.70
2018-06-24T13:52:34.958Z,2.80
2018-06-24T13:55:03.957Z,3.93
2018-06-24T13:57:33.557Z,4.90
2018-06-24T14:00:01.782Z,2.57
2018-06-24T14:02:29.932Z,4.03
2018-06-24T14:04:58.077Z,2.53
2018-06-24T14:07:26.940Z,1.93
2018-06-24T14:09:55.109Z,2.27
2018-06-24T14:12:24.048Z,4.17
2018-06-24T14:14:52.228Z,2.50
2018-06-24T14:17:21.175Z,2.43
2018-06-24T14:19:49.592Z,3.23
2018-06-24T14:22:18.360Z,4.83
2018-06-24T14:24:46.482Z,4.17
2018-06-24T14:27:14.619Z,3.87
2018-06-24T14:29:43.591Z,3.07
2018-06-24T14:32:11.764Z,3.13
2018-06-24T14:34:39.940Z,3.40
2018-06-24T14:37:08.234Z,3.20
2018-06-24T14:39:37.103Z,2.97
2018-06-24T14:42:05.292Z,3.27
2018-06-24T14:44:33.458Z,5.53
2018-06-24T14:47:02.286Z,3.63
2018-06-24T14:49:30.535Z,3.83
2018-06-24T14:51:58.811Z,3.67
2018-06-24T14:54:27.771Z,3.33
2018-06-24T14:56:56.674Z,4.40
2018-06-24T14:59:24.861Z,3.80
2018-06-24T15:01:53.619Z,5.20
2018-06-24T15:04:21.844Z,6.83
2018-06-24T15:06:50.640Z,6.37
2018-06-24T15:09:19.306Z,4.97
2018-06-24T15:11:47.506Z,4.30
2018-06-24T15:14:15.686Z,5.77
2018-06-24T15:16:43.947Z,3.90
2018-06-24T15:19:12.121Z,4.60
2018-06-24T15:21:40.393Z,3.83
2018-06-24T15:24:08.637Z,5.20
2018-06-24T15:26:36.830Z,3.93
2018-06-24T15:29:05.712Z,5.17
2018-06-24T15:31:33.881Z,5.33
2018-06-24T15:34:02.059Z,4.40
2018-06-24T15:36:30.232Z,3.80
2018-06-24T15:38:59.041Z,5.23
2018-06-24T15:41:27.190Z,3.93
2018-06-24T15:43:55.310Z,4.10
2018-06-24T15:46:23.541Z,3.93
2018-06-24T15:48:52.617Z,3.40
2018-06-24T15:51:20.864Z,4.23
2018-06-24T15:53:49.641Z,3.73
2018-06-24T15:56:17.787Z,4.90
2018-06-24T15:58:45.995Z,4.63
2018-06-24T16:01:14.157Z,4.80
2018-06-24T16:03:43.648Z,4.00
2018-06-24T16:06:12.652Z,4.20
2018-06-24T16:08:41.655Z,4.23
2018-06-24T16:11:10.392Z,3.07
2018-06-24T16:13:38.632Z,6.40
2018-06-24T16:16:07.450Z,2.60
2018-06-24T16:18:35.754Z,2.77
2018-06-24T16:21:04.309Z,3.17
2018-06-24T16:23:32.188Z,2.90
2018-06-24T16:26:00.485Z,3.00
2018-06-24T16:28:28.938Z,3.40
2018-06-24T16:30:57.197Z,3.03
2018-06-24T16:33:25.255Z,4.53
2018-06-24T16:35:54.314Z,2.93
2018-06-24T16:38:22.470Z,4.57
2018-06-24T16:40:50.743Z,3.67
2018-06-24T16:43:18.887Z,2.73
2018-06-24T16:45:47.021Z,2.37
2018-06-24T16:48:15.267Z,2.43
2018-06-24T16:50:43.528Z,2.83
2018-06-24T16:53:11.714Z,3.07
2018-06-24T16:55:39.865Z,3.77
2018-06-24T16:58:08.968Z,4.63
2018-06-24T17:00:37.663Z,2.33
2018-06-24T17:03:07.070Z,3.17
2018-06-24T17:05:35.262Z,2.20
2018-06-24T17:08:04.006Z,3.93
2018-06-24T17:10:32.206Z,2.57
2018-06-24T17:13:00.405Z,2.80
2018-06-24T17:15:28.611Z,3.33
2018-06-24T17:17:56.889Z,2.37
2018-06-24T17:20:25.123Z,2.67
2018-06-24T17:22:53.362Z,2.90
2018-06-24T17:25:21.567Z,3.03
2018-06-24T17:27:49.918Z,3.20
2018-06-24T17:30:18.318Z,2.60
2018-06-24T17:32:47.212Z,2.63
2018-06-24T17:35:15.982Z,3.57
2018-06-24T17:37:44.291Z,2.70
2018-06-24T17:40:12.614Z,2.97
2018-06-24T17:42:40.844Z,2.70
2018-06-24T17:45:09.017Z,3.00
2018-06-24T17:47:37.881Z,2.50
2018-06-24T17:50:06.007Z,2.90
2018-06-24T17:52:34.183Z,2.90
2018-06-24T17:55:02.977Z,2.87
2018-06-24T17:57:31.613Z,3.13
2018-06-24T18:00:00.520Z,3.30
2018-06-24T18:02:28.663Z,3.20
2018-06-24T18:04:57.440Z,2.90
2018-06-24T18:07:26.675Z,3.63
2018-06-24T18:09:54.854Z,3.00
2018-06-24T18:12:23.106Z,5.23
2018-06-24T18:14:51.314Z,3.67
2018-06-24T18:17:19.575Z,4.13
2018-06-24T18:19:47.829Z,3.50
2018-06-24T18:22:16.883Z,3.20
2018-06-24T18:24:45.293Z,4.67
2018-06-24T18:27:13.673Z,3.80
2018-06-24T18:29:42.644Z,4.87
2018-06-24T18:32:11.040Z,3.80
2018-06-24T18:34:39.834Z,3.87
2018-06-24T18:37:08.123Z,4.87
2018-06-24T18:39:36.324Z,3.27
2018-06-24T18:42:04.528Z,5.30
2018-06-24T18:44:32.826Z,3.60
2018-06-24T18:47:01.203Z,4.33
2018-06-24T18:49:29.388Z,4.50
2018-06-24T18:51:57.769Z,4.47
2018-06-24T18:54:26.006Z,4.07
2018-06-24T18:56:54.259Z,4.07
2018-06-24T18:59:22.432Z,4.67
2018-06-24T19:01:51.480Z,3.97
2018-06-24T19:04:19.910Z,4.77
2018-06-24T19:06:48.157Z,3.50
2018-06-24T19:09:16.380Z,4.27
2018-06-24T19:11:45.414Z,3.80
2018-06-24T19:14:14.645Z,4.53
2018-06-24T19:16:43.390Z,2.67
2018-06-24T19:19:11.715Z,2.77
2018-06-24T19:21:39.955Z,3.10
2018-06-24T19:24:08.070Z,2.50
2018-06-24T19:26:36.300Z,3.27
2018-06-24T19:29:04.547Z,3.03
2018-06-24T19:31:33.363Z,2.53
2018-06-24T19:34:01.508Z,2.57
2018-06-24T19:36:29.798Z,2.97
2018-06-24T19:38:58.190Z,2.87
2018-06-24T19:41:26.434Z,2.57
2018-06-24T19:43:55.378Z,2.17
2018-06-24T19:46:23.748Z,2.27
2018-06-24T19:48:51.996Z,2.17
2018-06-24T19:51:20.418Z,2.80
2018-06-24T19:53:48.662Z,1.60
2018-06-24T19:56:17.135Z,2.17
2018-06-24T19:58:45.324Z,1.67
2018-06-24T20:01:13.443Z,1.50
2018-06-24T20:03:41.736Z,1.77
2018-06-24T20:06:10.549Z,1.40
2018-06-24T20:08:39.355Z,2.17
2018-06-24T20:11:07.505Z,1.97
2018-06-24T20:13:36.306Z,1.67
2018-06-24T20:16:05.099Z,2.20
2018-06-24T20:18:33.296Z,1.90
2018-06-24T20:21:02.268Z,2.07
2018-06-24T20:23:31.594Z,1.47
2018-06-24T20:26:00.415Z,1.47
2018-06-24T20:28:28.622Z,1.70
2018-06-24T20:30:57.007Z,1.70
2018-06-24T20:33:25.169Z,2.13
2018-06-24T20:35:53.370Z,1.40
2018-06-24T20:38:21.617Z,1.47
2018-06-24T20:40:49.788Z,2.37
2018-06-24T20:43:17.960Z,1.40
2018-06-24T20:45:46.221Z,2.13
2018-06-24T20:48:14.526Z,2.17
2018-06-24T20:50:42.930Z,2.03
2018-06-24T20:53:11.095Z,1.50
2018-06-24T20:55:39.336Z,1.60
2018-06-24T20:58:07.665Z,1.30
2018-06-24T21:00:35.801Z,1.87
2018-06-24T21:03:03.996Z,1.77
2018-06-24T21:05:32.136Z,2.10
2018-06-24T21:08:00.316Z,2.07
2018-06-24T21:10:28.477Z,2.23
2018-06-24T21:12:56.674Z,2.00
2018-06-24T21:15:24.836Z,2.00
2018-06-24T21:17:53.796Z,2.03
2018-06-24T21:20:21.954Z,2.20
2018-06-24T21:22:50.815Z,2.37
2018-06-24T21:25:19.052Z,2.90
2018-06-24T21:27:47.235Z,2.30
2018-06-24T21:30:15.398Z,3.60
2018-06-24T21:32:43.578Z,2.53
2018-06-24T21:35:11.759Z,2.87
2018-06-24T21:37:39.930Z,3.97
2018-06-24T21:40:08.699Z,2.87
2018-06-24T21:42:36.925Z,3.40
2018-06-24T21:45:05.291Z,3.17
2018-06-24T21:47:33.924Z,3.07
2018-06-24T21:50:02.143Z,3.00
2018-06-24T21:52:30.268Z,3.77
2018-06-24T21:54:59.113Z,4.57
2018-06-24T21:57:27.391Z,3.23
2018-06-24T21:59:55.565Z,3.37
2018-06-24T22:02:23.711Z,5.30
2018-06-24T22:04:52.080Z,3.13
2018-06-24T22:07:20.417Z,3.70
2018-06-24T22:09:49.162Z,4.00
2018-06-24T22:12:17.349Z,3.57
2018-06-24T22:14:45.564Z,5.73
2018-06-24T22:17:13.718Z,5.10
2018-06-24T22:19:41.882Z,6.00
2018-06-24T22:22:10.082Z,4.50
2018-06-24T22:24:38.223Z,5.47
2018-06-24T22:27:06.461Z,5.83
2018-06-24T22:29:34.549Z,6.93
2018-06-24T22:32:02.955Z,5.33
2018-06-24T22:34:31.124Z,5.87
2018-06-24T22:36:59.395Z,4.27
2018-06-24T22:39:27.569Z,5.30
2018-06-24T22:41:55.735Z,4.40
2018-06-24T22:44:23.907Z,5.43
2018-06-24T22:46:52.278Z,4.83
2018-06-24T22:49:20.429Z,4.60
2018-06-24T22:51:48.920Z,6.63
2018-06-24T22:54:17.110Z,4.53
2018-06-24T22:56:45.375Z,6.23
2018-06-24T22:59:19.183Z,5.03
2018-06-24T23:01:47.353Z,5.30
2018-06-24T23:04:15.653Z,4.97
2018-06-24T23:06:43.858Z,7.13
2018-06-24T23:09:11.995Z,5.90
2018-06-24T23:11:40.152Z,5.87
2018-06-24T23:14:08.357Z,4.47
2018-06-24T23:16:36.613Z,7.10
2018-06-24T23:19:04.876Z,5.00
2018-06-24T23:21:33.810Z,4.20
2018-06-24T23:24:01.949Z,5.07
2018-06-24T23:26:30.146Z,5.67
2018-06-24T23:28:59.260Z,4.53
2018-06-24T23:31:27.438Z,5.80
2018-06-24T23:33:55.620Z,5.87
2018-06-24T23:36:23.897Z,5.00
2018-06-24T23:38:52.041Z,4.60
2018-06-24T23:41:20.965Z,5.57
2018-06-24T23:43:49.117Z,5.53
2018-06-24T23:46:17.869Z,8.13
2018-06-24T23:48:46.081Z,5.33
2018-06-24T23:51:14.289Z,3.80
2018-06-24T23:53:42.454Z,5.63
2018-06-24T23:56:10.681Z,4.23
2018-06-24T23:58:39.032Z,4.67
